Accueil
METAR-TAF:

METAR-TAF

Aéroports :

Capo Mele

Andora, Italie

latitude: 43-57N, longitude: 008-10E, altitude: 220 m

Observation

Le bulletin a été fait il y a 23 minutes, à 00:55 UTC
Vent 12 kt de nord
Température 18°C
Humidité 59%
Pression 1014 hPa
Visibilité 10 km ou plus
pas de nuages en-dessous de 1500 mètres et pas de cumulonimbus.

METAR: LIMU 210055Z 35012KT CAVOK 18/10 Q1014 RMK FEW FEW053 QUK / QUL / VIS MAR 25 KM VIS MIN 9999

Heure: 03:18 (01:18 UTC)


TAF: absent

Observations et prévisions météorologiques de plus de 4000 aéroports (messages METAR et TAF).

Les stations disponibles sont représentées par des disques jaunes et rouges sur la carte.

Passer la souris dessus pour voir le nom de la station.

Cliquer dessus pour voir les observations et prévisions météorologiques.

Pour changer de carte: cliquez sur les boutons verts avec une croix noire pour zoomer, sur le bouton vert avec un tiret pour effectuer un zoom arrière, ou sur les flèches vertes pour les cartes adjacentes.


METAR-TAF: